createdAt,value
2018-07-08T00:00:56.231Z,80.65
2018-07-08T00:01:56.168Z,80.55
2018-07-08T00:02:56.239Z,80.94
2018-07-08T00:03:56.273Z,80.97
2018-07-08T00:04:56.149Z,81.32
2018-07-08T00:05:56.230Z,81.05
2018-07-08T00:06:56.252Z,81.05
2018-07-08T00:07:56.241Z,81.18
2018-07-08T00:08:56.235Z,81.34
2018-07-08T00:09:56.235Z,81.48
2018-07-08T00:10:56.190Z,81.76
2018-07-08T00:11:56.178Z,82.00
2018-07-08T00:12:56.267Z,82.67
2018-07-08T00:13:56.109Z,83.01
2018-07-08T00:14:56.107Z,83.57
2018-07-08T00:15:56.134Z,84.15
2018-07-08T00:16:56.174Z,84.66
2018-07-08T00:17:56.197Z,85.24
2018-07-08T00:18:56.114Z,85.50
2018-07-08T00:19:56.141Z,85.58
2018-07-08T00:20:56.222Z,86.25
2018-07-08T00:21:56.202Z,86.68
2018-07-08T00:22:56.224Z,86.91
2018-07-08T00:23:56.172Z,87.40
2018-07-08T00:24:56.248Z,87.90
2018-07-08T00:25:56.276Z,88.41
2018-07-08T00:26:56.188Z,88.65
2018-07-08T00:27:56.222Z,89.00
2018-07-08T00:28:56.247Z,89.32
2018-07-08T00:29:56.251Z,89.80
2018-07-08T00:30:56.189Z,89.83
2018-07-08T00:31:56.310Z,89.75
2018-07-08T00:32:56.279Z,89.62
2018-07-08T00:33:56.251Z,89.70
2018-07-08T00:34:56.176Z,90.20
2018-07-08T00:35:56.228Z,90.82
2018-07-08T00:36:56.279Z,91.14
2018-07-08T00:37:56.230Z,91.17
2018-07-08T00:38:56.253Z,91.22
2018-07-08T00:39:56.336Z,91.65
2018-07-08T00:40:56.221Z,91.79
2018-07-08T00:41:56.253Z,91.73
2018-07-08T00:42:56.223Z,92.22
2018-07-08T00:43:56.259Z,92.38
2018-07-08T00:44:56.190Z,92.40
2018-07-08T00:45:56.265Z,92.43
2018-07-08T00:46:56.192Z,93.05
2018-07-08T00:47:56.193Z,93.35
2018-07-08T00:48:56.265Z,93.48
2018-07-08T00:49:56.267Z,93.70
2018-07-08T00:50:56.201Z,93.81
2018-07-08T00:51:56.268Z,93.70
2018-07-08T00:52:56.269Z,93.75
2018-07-08T00:53:56.305Z,93.96
2018-07-08T00:54:56.260Z,94.07
2018-07-08T00:55:56.342Z,94.12
2018-07-08T00:56:56.262Z,94.15
2018-07-08T00:57:56.195Z,93.89
2018-07-08T00:58:56.267Z,93.70
2018-07-08T00:59:56.215Z,93.67
2018-07-08T01:00:56.175Z,93.59
2018-07-08T01:01:56.179Z,93.51
2018-07-08T01:02:56.266Z,93.67
2018-07-08T01:03:56.211Z,93.81
2018-07-08T01:04:56.272Z,93.96
2018-07-08T01:05:56.306Z,94.31
2018-07-08T01:06:56.299Z,94.18
2018-07-08T01:07:56.303Z,94.07
2018-07-08T01:08:56.305Z,94.29
2018-07-08T01:09:56.316Z,94.26
2018-07-08T01:10:56.282Z,94.31
2018-07-08T01:11:56.302Z,94.29
2018-07-08T01:12:56.199Z,94.26
2018-07-08T01:13:56.219Z,94.29
2018-07-08T01:14:56.181Z,94.53
2018-07-08T01:15:56.236Z,94.50
2018-07-08T01:16:56.239Z,94.50
2018-07-08T01:17:56.319Z,94.31
2018-07-08T01:18:56.256Z,93.99
2018-07-08T01:19:56.200Z,93.83
2018-07-08T01:20:56.239Z,93.78
2018-07-08T01:21:56.209Z,93.70
2018-07-08T01:22:56.316Z,93.89
2018-07-08T01:23:56.282Z,93.89
2018-07-08T01:24:56.222Z,94.02
2018-07-08T01:25:56.288Z,94.12
2018-07-08T01:26:56.219Z,93.96
2018-07-08T01:27:56.287Z,94.34
2018-07-08T01:28:56.294Z,94.50
2018-07-08T01:29:56.230Z,94.40
2018-07-08T01:30:56.222Z,94.37
2018-07-08T01:31:56.302Z,94.02
2018-07-08T01:32:56.221Z,93.81
2018-07-08T01:33:56.295Z,93.64
2018-07-08T01:34:56.252Z,93.13
2018-07-08T01:35:56.268Z,92.08
2018-07-08T01:36:56.260Z,91.55
2018-07-08T01:37:56.252Z,90.61
2018-07-08T01:38:56.274Z,89.86
2018-07-08T01:39:56.317Z,89.29
2018-07-08T01:40:56.295Z,88.65
2018-07-08T01:41:56.305Z,88.12
2018-07-08T01:42:56.355Z,87.90
2018-07-08T01:43:56.330Z,87.64
2018-07-08T01:44:56.238Z,87.61
2018-07-08T01:45:56.303Z,87.80
2018-07-08T01:46:56.341Z,88.04
2018-07-08T01:47:56.334Z,88.04
2018-07-08T01:48:56.269Z,87.96
2018-07-08T01:49:56.206Z,88.09
2018-07-08T01:50:56.303Z,88.23
2018-07-08T01:51:56.275Z,88.33
2018-07-08T01:52:56.311Z,88.71
2018-07-08T01:53:56.244Z,88.36
2018-07-08T01:54:56.285Z,87.96
2018-07-08T01:55:56.212Z,87.48
2018-07-08T01:56:56.315Z,87.05
2018-07-08T01:57:56.346Z,86.60
2018-07-08T01:58:56.344Z,86.30
2018-07-08T01:59:56.210Z,86.15
2018-07-08T02:00:56.338Z,85.93
2018-07-08T02:01:56.348Z,85.69
2018-07-08T02:02:56.309Z,85.88
2018-07-08T02:03:56.317Z,85.91
2018-07-08T02:04:56.310Z,85.93
2018-07-08T02:05:56.338Z,85.91
2018-07-08T02:06:56.344Z,85.96
2018-07-08T02:07:56.317Z,86.12
2018-07-08T02:08:56.343Z,86.30
2018-07-08T02:09:56.317Z,86.52
2018-07-08T02:10:56.287Z,86.68
2018-07-08T02:11:56.317Z,86.79
2018-07-08T02:12:56.241Z,86.79
2018-07-08T02:13:56.224Z,86.89
2018-07-08T02:14:56.255Z,87.16
2018-07-08T02:15:56.322Z,87.00
2018-07-08T02:16:56.320Z,87.29
2018-07-08T02:17:56.320Z,87.67
2018-07-08T02:18:56.252Z,88.04
2018-07-08T02:19:56.255Z,88.46
2018-07-08T02:20:56.268Z,88.62
2018-07-08T02:21:56.322Z,88.87
2018-07-08T02:22:56.324Z,89.14
2018-07-08T02:23:56.265Z,89.40
2018-07-08T02:24:56.259Z,89.67
2018-07-08T02:25:56.327Z,89.75
2018-07-08T02:26:56.261Z,89.88
2018-07-08T02:27:56.260Z,90.20
2018-07-08T02:28:56.329Z,90.39
2018-07-08T02:29:56.330Z,90.71
2018-07-08T02:30:56.265Z,90.66
2018-07-08T02:31:56.337Z,90.66
2018-07-08T02:32:56.332Z,90.77
2018-07-08T02:33:56.262Z,91.30
2018-07-08T02:34:56.335Z,91.68
2018-07-08T02:35:56.252Z,91.86
2018-07-08T02:36:56.271Z,92.11
2018-07-08T02:37:56.333Z,92.43
2018-07-08T02:38:56.312Z,93.26
2018-07-08T02:39:56.367Z,94.15
2018-07-08T02:40:56.267Z,94.61
2018-07-08T02:41:56.368Z,94.69
2018-07-08T02:42:56.306Z,94.86
2018-07-08T02:43:56.260Z,95.04
2018-07-08T02:44:56.279Z,95.23
2018-07-08T02:45:56.281Z,95.56
2018-07-08T02:46:56.343Z,95.58
2018-07-08T02:47:56.345Z,95.64
2018-07-08T02:48:56.343Z,95.75
2018-07-08T02:49:56.277Z,96.02
2018-07-08T02:50:56.355Z,96.45
2018-07-08T02:51:56.280Z,96.85
2018-07-08T02:52:56.349Z,97.21
2018-07-08T02:53:56.277Z,97.42
2018-07-08T02:54:56.351Z,97.61
2018-07-08T02:55:56.281Z,97.88
2018-07-08T02:56:56.354Z,98.12
2018-07-08T02:57:56.283Z,98.26
2018-07-08T02:58:56.350Z,98.40
2018-07-08T02:59:56.283Z,98.69
2018-07-08T03:00:56.352Z,98.94
2018-07-08T03:01:56.388Z,99.10
2018-07-08T03:02:56.284Z,99.23
2018-07-08T03:03:56.369Z,99.40
2018-07-08T03:04:56.274Z,99.51
2018-07-08T03:05:56.302Z,99.62
2018-07-08T03:06:56.348Z,99.72
2018-07-08T03:07:56.230Z,99.75
2018-07-08T03:08:56.380Z,99.89
2018-07-08T03:09:56.297Z,99.94
2018-07-08T03:10:56.279Z,99.99
2018-07-08T03:11:56.234Z,99.99
2018-07-08T03:12:56.292Z,99.99
2018-07-08T03:13:56.358Z,99.99
2018-07-08T03:14:56.265Z,99.99
2018-07-08T03:15:56.357Z,99.99
2018-07-08T03:16:56.388Z,99.99
2018-07-08T03:17:56.334Z,99.99
2018-07-08T03:18:56.305Z,99.99
2018-07-08T03:19:56.262Z,99.99
2018-07-08T03:20:56.392Z,99.99
2018-07-08T03:21:56.336Z,99.99
2018-07-08T03:22:56.395Z,99.99
2018-07-08T03:23:56.265Z,99.99
2018-07-08T03:24:56.368Z,99.99
2018-07-08T03:25:56.302Z,99.99
2018-07-08T03:26:56.376Z,99.99
2018-07-08T03:27:56.375Z,99.99
2018-07-08T03:28:56.300Z,99.99
2018-07-08T03:29:56.311Z,99.99
2018-07-08T03:30:56.379Z,99.99
2018-07-08T03:31:56.375Z,99.99
2018-07-08T03:32:56.310Z,99.99
2018-07-08T03:33:56.302Z,99.99
2018-07-08T03:34:56.375Z,99.99
2018-07-08T03:35:56.390Z,99.99
2018-07-08T03:36:56.307Z,99.99
2018-07-08T03:37:56.309Z,99.99
2018-07-08T03:38:56.308Z,99.99
2018-07-08T03:39:56.309Z,99.99
2018-07-08T03:40:56.309Z,99.99
2018-07-08T03:41:56.389Z,99.99
2018-07-08T03:42:56.331Z,99.99
2018-07-08T03:43:56.280Z,99.99
2018-07-08T03:44:56.380Z,99.99
2018-07-08T03:45:56.373Z,99.99
2018-07-08T03:46:56.252Z,99.99
2018-07-08T03:47:56.291Z,99.99
2018-07-08T03:48:56.332Z,99.99
2018-07-08T03:49:56.272Z,99.99
2018-07-08T03:50:56.336Z,99.99
2018-07-08T03:51:56.291Z,99.99
2018-07-08T03:52:56.254Z,99.99
2018-07-08T03:53:56.339Z,99.99
2018-07-08T03:54:56.273Z,99.99
2018-07-08T03:55:56.318Z,99.99
2018-07-08T03:56:56.373Z,99.99
2018-07-08T03:57:56.369Z,99.99
2018-07-08T03:58:56.348Z,99.99
2018-07-08T03:59:56.315Z,99.99
2018-07-08T04:00:56.351Z,99.99
2018-07-08T04:01:56.283Z,99.99
2018-07-08T04:02:56.342Z,99.99
2018-07-08T04:03:56.281Z,99.99
2018-07-08T04:04:56.410Z,99.99
2018-07-08T04:05:56.329Z,99.99
2018-07-08T04:06:56.347Z,99.99
2018-07-08T04:07:56.406Z,99.99
2018-07-08T04:08:56.295Z,99.99
2018-07-08T04:09:56.463Z,99.99
2018-07-08T04:10:56.394Z,99.99
2018-07-08T04:11:56.430Z,99.99
2018-07-08T04:12:56.422Z,99.99
2018-07-08T04:13:56.433Z,99.99
2018-07-08T04:14:56.332Z,99.99
2018-07-08T04:15:56.330Z,99.99
2018-07-08T04:16:56.397Z,99.99
2018-07-08T04:17:56.335Z,99.92
2018-07-08T04:18:56.335Z,99.48
2018-07-08T04:19:56.324Z,99.04
2018-07-08T04:20:56.401Z,98.69
2018-07-08T04:21:56.341Z,98.21
2018-07-08T04:22:56.403Z,97.58
2018-07-08T04:23:56.297Z,96.74
2018-07-08T04:24:56.367Z,96.20
2018-07-08T04:25:56.425Z,95.75
2018-07-08T04:26:56.406Z,95.47
2018-07-08T04:27:56.339Z,95.07
2018-07-08T04:28:56.403Z,94.86
2018-07-08T04:29:56.381Z,94.67
2018-07-08T04:30:56.408Z,94.42
2018-07-08T04:31:56.417Z,93.99
2018-07-08T04:32:56.407Z,93.54
2018-07-08T04:33:56.344Z,93.21
2018-07-08T04:34:56.342Z,92.95
2018-07-08T04:35:56.371Z,92.73
2018-07-08T04:36:56.337Z,92.49
2018-07-08T04:37:56.350Z,92.46
2018-07-08T04:38:56.343Z,92.30
2018-07-08T04:39:56.342Z,92.30
2018-07-08T04:40:56.383Z,92.16
2018-07-08T04:41:56.345Z,91.97
2018-07-08T04:42:56.403Z,91.63
2018-07-08T04:43:56.375Z,91.52
2018-07-08T04:44:56.348Z,91.36
2018-07-08T04:45:56.419Z,91.14
2018-07-08T04:46:56.422Z,91.33
2018-07-08T04:47:56.397Z,91.49
2018-07-08T04:48:56.316Z,91.60
2018-07-08T04:49:56.420Z,91.55
2018-07-08T04:50:56.354Z,91.52
2018-07-08T04:51:56.384Z,90.88
2018-07-08T04:52:56.349Z,90.85
2018-07-08T04:53:56.355Z,90.61
2018-07-08T04:54:56.422Z,90.34
2018-07-08T04:55:56.334Z,90.42
2018-07-08T04:56:56.440Z,90.05
2018-07-08T04:57:56.406Z,89.51
2018-07-08T04:58:56.447Z,89.51
2018-07-08T04:59:56.340Z,89.56
2018-07-08T05:00:56.535Z,89.91
2018-07-08T05:01:56.430Z,90.20
2018-07-08T05:02:56.432Z,90.05
2018-07-08T05:03:56.454Z,89.86
2018-07-08T05:04:56.368Z,89.22
2018-07-08T05:05:56.432Z,89.08
2018-07-08T05:06:56.459Z,88.87
2018-07-08T05:07:56.409Z,88.52
2018-07-08T05:08:56.410Z,88.28
2018-07-08T05:09:56.457Z,88.50
2018-07-08T05:10:56.395Z,88.73
2018-07-08T05:11:56.434Z,88.92
2018-07-08T05:12:56.404Z,88.76
2018-07-08T05:13:56.418Z,88.73
2018-07-08T05:14:56.504Z,88.73
2018-07-08T05:15:56.410Z,88.65
2018-07-08T05:16:56.453Z,88.44
2018-07-08T05:17:56.471Z,88.50
2018-07-08T05:18:56.417Z,88.84
2018-07-08T05:19:56.339Z,89.24
2018-07-08T05:20:56.473Z,89.16
2018-07-08T05:21:56.477Z,88.81
2018-07-08T05:22:56.397Z,88.71
2018-07-08T05:23:56.446Z,88.54
2018-07-08T05:24:56.350Z,88.15
2018-07-08T05:25:56.422Z,88.28
2018-07-08T05:26:56.416Z,87.98
2018-07-08T05:27:56.402Z,87.85
2018-07-08T05:28:56.448Z,87.45
2018-07-08T05:29:56.522Z,87.32
2018-07-08T05:30:56.421Z,86.89
2018-07-08T05:31:56.489Z,86.73
2018-07-08T05:32:56.450Z,86.52
2018-07-08T05:33:56.351Z,86.36
2018-07-08T05:34:56.448Z,85.96
2018-07-08T05:35:56.354Z,85.91
2018-07-08T05:36:56.479Z,86.04
2018-07-08T05:37:56.407Z,85.96
2018-07-08T05:38:56.492Z,85.69
2018-07-08T05:39:56.481Z,85.35
2018-07-08T05:40:56.474Z,85.05
2018-07-08T05:41:56.417Z,85.00
2018-07-08T05:42:56.392Z,85.11
2018-07-08T05:43:56.414Z,84.95
2018-07-08T05:44:56.441Z,84.89
2018-07-08T05:45:56.437Z,84.71
2018-07-08T05:46:56.430Z,84.52
2018-07-08T05:47:56.499Z,84.63
2018-07-08T05:48:56.385Z,84.63
2018-07-08T05:49:56.418Z,84.31
2018-07-08T05:50:56.483Z,83.97
2018-07-08T05:51:56.442Z,84.09
2018-07-08T05:52:56.439Z,83.78
2018-07-08T05:53:56.443Z,83.49
2018-07-08T05:54:56.469Z,83.17
2018-07-08T05:55:56.402Z,83.81
2018-07-08T05:56:56.399Z,83.51
2018-07-08T05:57:56.469Z,83.65
2018-07-08T05:58:56.461Z,82.51
2018-07-08T05:59:56.404Z,82.69
2018-07-08T06:00:56.427Z,82.19
2018-07-08T06:01:56.474Z,82.00
2018-07-08T06:02:56.403Z,81.76
2018-07-08T06:03:56.472Z,81.40
2018-07-08T06:04:56.446Z,81.92
2018-07-08T06:05:56.440Z,82.11
2018-07-08T06:06:56.519Z,82.16
2018-07-08T06:07:56.442Z,82.14
2018-07-08T06:08:56.442Z,81.95
2018-07-08T06:09:56.504Z,82.08
2018-07-08T06:10:56.438Z,81.71
2018-07-08T06:11:56.440Z,81.95
2018-07-08T06:12:56.443Z,82.06
2018-07-08T06:13:56.422Z,82.53
2018-07-08T06:14:56.461Z,82.08
2018-07-08T06:15:56.437Z,82.27
2018-07-08T06:16:56.397Z,81.82
2018-07-08T06:17:56.524Z,81.84
2018-07-08T06:18:56.518Z,82.08
2018-07-08T06:19:56.518Z,81.71
2018-07-08T06:20:56.463Z,80.79
2018-07-08T06:21:56.458Z,80.47
2018-07-08T06:22:56.515Z,80.36
2018-07-08T06:23:56.463Z,79.97
2018-07-08T06:24:56.419Z,80.26
2018-07-08T06:25:56.464Z,80.81
2018-07-08T06:26:56.373Z,80.21
2018-07-08T06:27:56.471Z,79.39
2018-07-08T06:28:56.387Z,79.41
2018-07-08T06:29:56.443Z,79.36
2018-07-08T06:30:56.385Z,78.07
2018-07-08T06:31:56.441Z,78.54
2018-07-08T06:32:56.449Z,77.39
2018-07-08T06:33:56.479Z,77.23
2018-07-08T06:34:56.459Z,76.78
2018-07-08T06:35:56.521Z,76.41
2018-07-08T06:36:56.497Z,76.39
2018-07-08T06:37:56.465Z,76.15
2018-07-08T06:38:56.475Z,74.47
2018-07-08T06:39:56.434Z,74.26
2018-07-08T06:40:56.463Z,74.63
2018-07-08T06:41:56.499Z,75.62
2018-07-08T06:42:56.465Z,73.53
2018-07-08T06:43:56.456Z,73.61
2018-07-08T06:44:56.404Z,73.48
2018-07-08T06:45:56.528Z,74.42
2018-07-08T06:46:56.458Z,74.66
2018-07-08T06:47:56.455Z,74.26
2018-07-08T06:48:56.460Z,73.95
2018-07-08T06:49:56.530Z,73.87
2018-07-08T06:50:56.538Z,73.82
2018-07-08T06:51:56.591Z,73.71
2018-07-08T06:52:56.506Z,74.71
2018-07-08T06:53:56.475Z,74.36
2018-07-08T06:54:56.412Z,74.34
2018-07-08T06:55:56.461Z,74.29
2018-07-08T06:56:56.447Z,74.79
2018-07-08T06:57:56.490Z,75.41
2018-07-08T06:58:56.462Z,75.13
2018-07-08T06:59:56.418Z,75.31
2018-07-08T07:00:56.420Z,74.84
2018-07-08T07:01:56.467Z,74.76
2018-07-08T07:02:56.470Z,74.63
2018-07-08T07:03:56.511Z,74.87
2018-07-08T07:04:56.465Z,74.26
2018-07-08T07:05:56.442Z,74.21
2018-07-08T07:06:56.511Z,73.95
2018-07-08T07:07:56.446Z,74.05
2018-07-08T07:08:56.556Z,74.47
2018-07-08T07:09:56.447Z,74.52
2018-07-08T07:10:56.448Z,73.82
2018-07-08T07:11:56.445Z,74.18
2018-07-08T07:12:56.452Z,73.30
2018-07-08T07:13:56.455Z,73.85
2018-07-08T07:14:56.516Z,72.64
2018-07-08T07:15:56.457Z,73.53
2018-07-08T07:16:56.452Z,73.77
2018-07-08T07:17:56.567Z,73.97
2018-07-08T07:18:56.527Z,73.93
2018-07-08T07:19:56.455Z,73.55
2018-07-08T07:20:56.524Z,73.93
2018-07-08T07:21:56.454Z,73.69
2018-07-08T07:22:56.463Z,73.30
2018-07-08T07:23:56.527Z,74.08
2018-07-08T07:24:56.525Z,74.40
2018-07-08T07:25:56.425Z,74.60
2018-07-08T07:26:56.497Z,74.24
2018-07-08T07:27:56.500Z,73.58
2018-07-08T07:28:56.505Z,73.79
2018-07-08T07:29:56.528Z,73.71
2018-07-08T07:30:56.516Z,73.01
2018-07-08T07:31:56.505Z,73.06
2018-07-08T07:32:56.491Z,70.32
2018-07-08T07:33:56.553Z,69.57
2018-07-08T07:34:56.438Z,70.17
2018-07-08T07:35:56.432Z,70.29
2018-07-08T07:36:56.502Z,71.21
2018-07-08T07:37:56.524Z,71.60
2018-07-08T07:38:56.434Z,71.70
2018-07-08T07:39:56.523Z,72.41
2018-07-08T07:40:56.484Z,71.65
2018-07-08T07:41:56.482Z,72.25
2018-07-08T07:42:56.531Z,72.25
2018-07-08T07:43:56.509Z,72.25
2018-07-08T07:44:56.466Z,72.80
2018-07-08T07:45:56.575Z,73.08
2018-07-08T07:46:56.539Z,72.85
2018-07-08T07:47:56.480Z,72.69
2018-07-08T07:48:56.474Z,72.85
2018-07-08T07:49:56.542Z,72.61
2018-07-08T07:50:56.545Z,72.17
2018-07-08T07:51:56.479Z,71.91
2018-07-08T07:52:56.542Z,72.41
2018-07-08T07:53:56.542Z,71.26
2018-07-08T07:54:56.506Z,71.00
2018-07-08T07:55:56.519Z,70.37
2018-07-08T07:56:56.549Z,69.90
2018-07-08T07:57:56.522Z,69.02
2018-07-08T07:58:56.558Z,69.05
2018-07-08T07:59:56.459Z,69.51
2018-07-08T08:00:56.579Z,69.41
2018-07-08T08:01:56.578Z,69.05
2018-07-08T08:02:56.531Z,68.16
2018-07-08T08:03:56.507Z,66.37
2018-07-08T08:04:56.452Z,67.31
2018-07-08T08:05:56.543Z,66.37
2018-07-08T08:06:56.549Z,66.79
2018-07-08T08:07:56.522Z,66.40
2018-07-08T08:08:56.460Z,66.71
2018-07-08T08:09:56.523Z,65.26
2018-07-08T08:10:56.460Z,65.53
2018-07-08T08:11:56.481Z,64.44
2018-07-08T08:12:56.517Z,64.75
2018-07-08T08:13:56.605Z,64.15
2018-07-08T08:14:56.465Z,64.72
2018-07-08T08:15:56.595Z,65.06
2018-07-08T08:16:56.497Z,64.46
2018-07-08T08:17:56.500Z,63.72
2018-07-08T08:18:56.567Z,64.62
2018-07-08T08:19:56.538Z,63.82
2018-07-08T08:20:56.566Z,63.82
2018-07-08T08:21:56.528Z,63.64
2018-07-08T08:22:56.586Z,63.82
2018-07-08T08:23:56.541Z,62.87
2018-07-08T08:24:56.599Z,64.36
2018-07-08T08:25:56.604Z,64.26
2018-07-08T08:26:56.565Z,64.38
2018-07-08T08:27:56.596Z,64.88
2018-07-08T08:28:56.534Z,65.78
2018-07-08T08:29:56.586Z,64.95
2018-07-08T08:30:56.568Z,63.87
2018-07-08T08:31:56.533Z,63.05
2018-07-08T08:32:56.471Z,64.00
2018-07-08T08:33:56.504Z,63.95
2018-07-08T08:34:56.526Z,64.00
2018-07-08T08:35:56.550Z,64.38
2018-07-08T08:36:56.481Z,64.31
2018-07-08T08:37:56.538Z,63.56
2018-07-08T08:38:56.476Z,63.18
2018-07-08T08:39:56.571Z,63.49
2018-07-08T08:40:56.608Z,63.33
2018-07-08T08:41:56.536Z,63.43
2018-07-08T08:42:56.554Z,62.27
2018-07-08T08:43:56.474Z,62.40
2018-07-08T08:44:56.603Z,64.26
2018-07-08T08:45:56.677Z,64.95
2018-07-08T08:46:56.511Z,63.64
2018-07-08T08:47:56.585Z,61.89
2018-07-08T08:48:56.541Z,61.56
2018-07-08T08:49:56.583Z,63.07
2018-07-08T08:50:56.584Z,61.84
2018-07-08T08:51:56.517Z,60.12
2018-07-08T08:52:56.581Z,60.61
2018-07-08T08:53:56.520Z,60.76
2018-07-08T08:54:56.585Z,58.35
2018-07-08T08:55:56.589Z,60.22
2018-07-08T08:56:56.569Z,60.73
2018-07-08T08:57:56.630Z,61.14
2018-07-08T08:58:56.608Z,61.09
2018-07-08T08:59:56.668Z,61.35
2018-07-08T09:00:56.615Z,62.22
2018-07-08T09:01:56.592Z,61.76
2018-07-08T09:02:56.563Z,61.25
2018-07-08T09:03:56.491Z,60.14
2018-07-08T09:04:56.571Z,61.43
2018-07-08T09:05:56.482Z,61.82
2018-07-08T09:06:56.463Z,61.50
2018-07-08T09:07:56.537Z,60.61
2018-07-08T09:08:56.574Z,60.94
2018-07-08T09:09:56.551Z,59.45
2018-07-08T09:10:56.551Z,59.35
2018-07-08T09:11:56.528Z,58.66
2018-07-08T09:12:56.462Z,59.15
2018-07-08T09:13:56.532Z,59.45
2018-07-08T09:14:56.530Z,59.25
2018-07-08T09:15:56.501Z,60.17
2018-07-08T09:16:56.570Z,59.37
2018-07-08T09:17:56.519Z,58.04
2018-07-08T09:18:56.513Z,58.51
2018-07-08T09:19:56.543Z,58.66
2018-07-08T09:20:56.637Z,57.18
2018-07-08T09:21:56.634Z,57.36
2018-07-08T09:22:56.514Z,56.49
2018-07-08T09:23:56.556Z,55.91
2018-07-08T09:24:56.651Z,56.69
2018-07-08T09:25:56.574Z,56.65
2018-07-08T09:26:56.645Z,56.82
2018-07-08T09:27:56.596Z,57.41
2018-07-08T09:28:56.574Z,57.54
2018-07-08T09:29:56.584Z,57.51
2018-07-08T09:30:56.643Z,59.15
2018-07-08T09:31:56.610Z,58.66
2018-07-08T09:32:56.616Z,58.23
2018-07-08T09:33:56.611Z,57.23
2018-07-08T09:34:56.641Z,56.61
2018-07-08T09:35:56.614Z,57.84
2018-07-08T09:36:56.651Z,56.46
2018-07-08T09:37:56.510Z,57.15
2018-07-08T09:38:56.832Z,57.13
2018-07-08T09:39:56.554Z,57.66
2018-07-08T09:40:56.654Z,57.66
2018-07-08T09:41:56.516Z,55.96
2018-07-08T09:42:56.571Z,55.14
2018-07-08T09:43:56.581Z,54.73
2018-07-08T09:44:56.578Z,56.08
2018-07-08T09:45:56.676Z,56.29
2018-07-08T09:46:56.587Z,56.85
2018-07-08T09:47:56.661Z,56.06
2018-07-08T09:48:56.591Z,56.18
2018-07-08T09:49:56.621Z,55.80
2018-07-08T09:50:56.622Z,55.37
2018-07-08T09:51:56.604Z,54.28
2018-07-08T09:52:56.526Z,55.37
2018-07-08T09:53:56.625Z,55.14
2018-07-08T09:54:56.562Z,54.37
2018-07-08T09:55:56.630Z,53.42
2018-07-08T09:56:56.562Z,53.69
2018-07-08T09:57:56.637Z,53.06
2018-07-08T09:58:56.562Z,52.73
2018-07-08T09:59:56.646Z,53.62
2018-07-08T10:00:56.629Z,52.73
2018-07-08T10:01:56.564Z,51.77
2018-07-08T10:02:56.567Z,52.90
2018-07-08T10:03:56.567Z,52.37
2018-07-08T10:04:56.655Z,51.74
2018-07-08T10:05:56.606Z,51.19
2018-07-08T10:06:56.592Z,50.07
2018-07-08T10:07:56.540Z,52.15
2018-07-08T10:08:56.671Z,51.57
2018-07-08T10:09:56.611Z,51.41
2018-07-08T10:10:56.685Z,51.51
2018-07-08T10:11:56.609Z,51.49
2018-07-08T10:12:56.643Z,51.66
2018-07-08T10:13:56.676Z,50.22
2018-07-08T10:14:56.689Z,52.17
2018-07-08T10:15:56.518Z,52.04
2018-07-08T10:16:56.632Z,52.45
2018-07-08T10:17:56.581Z,51.37
2018-07-08T10:18:56.580Z,52.02
2018-07-08T10:19:56.774Z,51.62
2018-07-08T10:20:56.604Z,52.81
2018-07-08T10:21:56.536Z,52.70
2018-07-08T10:22:56.674Z,51.95
2018-07-08T10:23:56.513Z,52.43
2018-07-08T10:24:56.621Z,52.70
2018-07-08T10:25:56.646Z,50.93
2018-07-08T10:26:56.651Z,50.88
2018-07-08T10:27:56.584Z,50.78
2018-07-08T10:28:56.651Z,50.13
2018-07-08T10:29:56.646Z,50.27
2018-07-08T10:30:56.584Z,49.95
2018-07-08T10:32:56.655Z,51.39
2018-07-08T10:33:56.585Z,51.69
2018-07-08T10:34:56.653Z,50.63
2018-07-08T10:35:56.611Z,52.04
2018-07-08T10:36:56.559Z,50.63
2018-07-08T10:37:56.627Z,50.15
2018-07-08T10:38:56.554Z,50.66
2018-07-08T10:39:56.591Z,51.51
2018-07-08T10:40:56.635Z,49.97
2018-07-08T10:41:56.609Z,51.19
2018-07-08T10:42:56.630Z,50.22
2018-07-08T10:43:56.634Z,50.38
2018-07-08T10:44:56.688Z,50.25
2018-07-08T10:45:56.639Z,49.90
2018-07-08T10:46:56.661Z,49.22
2018-07-08T10:47:56.563Z,49.06
2018-07-08T10:48:56.641Z,48.59
2018-07-08T10:49:56.560Z,48.44
2018-07-08T10:50:56.566Z,48.99
2018-07-08T10:51:56.700Z,50.68
2018-07-08T10:52:56.589Z,50.43
2018-07-08T10:53:56.644Z,49.75
2018-07-08T10:54:56.700Z,48.86
2018-07-08T10:55:56.665Z,46.95
2018-07-08T10:56:56.604Z,46.27
2018-07-08T10:57:56.623Z,46.95
2018-07-08T10:58:56.672Z,47.91
2018-07-08T10:59:56.604Z,49.64
2018-07-08T11:00:56.673Z,49.60
2018-07-08T11:01:56.670Z,50.86
2018-07-08T11:02:56.606Z,47.91
2018-07-08T11:03:56.707Z,47.40
2018-07-08T11:04:56.673Z,45.98
2018-07-08T11:05:56.609Z,45.65
2018-07-08T11:06:56.674Z,47.48
2018-07-08T11:07:56.610Z,45.50
2018-07-08T11:08:56.674Z,44.15
2018-07-08T11:09:56.675Z,45.48
2018-07-08T11:10:56.630Z,44.45
2018-07-08T11:11:56.680Z,45.55
2018-07-08T11:12:56.678Z,47.63
2018-07-08T11:13:56.679Z,47.28
2018-07-08T11:14:56.612Z,45.45
2018-07-08T11:15:56.584Z,46.68
2018-07-08T11:16:56.715Z,44.64
2018-07-08T11:17:56.610Z,45.75
2018-07-08T11:18:56.713Z,47.73
2018-07-08T11:19:56.652Z,47.76
2018-07-08T11:20:56.767Z,46.70
2018-07-08T11:21:56.626Z,46.90
2018-07-08T11:22:56.704Z,46.12
2018-07-08T11:23:56.649Z,45.37
2018-07-08T11:24:56.711Z,48.46
2018-07-08T11:25:56.623Z,45.00
2018-07-08T11:26:56.695Z,45.87
2018-07-08T11:27:56.628Z,46.63
2018-07-08T11:28:56.691Z,48.26
2018-07-08T11:29:56.623Z,48.48
2018-07-08T11:30:56.690Z,47.71
2018-07-08T11:31:56.694Z,46.43
2018-07-08T11:32:56.626Z,47.08
2018-07-08T11:33:56.623Z,46.18
2018-07-08T11:34:56.695Z,46.52
2018-07-08T11:35:56.665Z,47.26
2018-07-08T11:36:56.727Z,47.71
2018-07-08T11:37:56.724Z,46.23
2018-07-08T11:38:56.769Z,45.27
2018-07-08T11:39:56.716Z,45.12
2018-07-08T11:40:56.604Z,45.07
2018-07-08T11:41:56.722Z,46.52
2018-07-08T11:42:56.755Z,44.97
2018-07-08T11:43:56.699Z,46.20
2018-07-08T11:44:56.676Z,46.78
2018-07-08T11:45:56.602Z,45.07
2018-07-08T11:46:56.741Z,45.70
2018-07-08T11:47:56.640Z,44.75
2018-07-08T11:48:56.672Z,48.23
2018-07-08T11:49:56.760Z,43.88
2018-07-08T11:50:56.687Z,44.05
2018-07-08T11:51:56.686Z,44.05
2018-07-08T11:52:56.723Z,45.37
2018-07-08T11:53:56.675Z,45.27
2018-07-08T11:54:56.681Z,45.48
2018-07-08T11:55:56.707Z,44.85
2018-07-08T11:56:56.724Z,44.60
2018-07-08T11:57:56.607Z,45.40
2018-07-08T11:58:56.727Z,44.17
2018-07-08T11:59:56.731Z,44.02
2018-07-08T12:00:56.650Z,44.07
2018-07-08T12:01:56.719Z,46.95
2018-07-08T12:02:56.713Z,43.50
2018-07-08T12:03:56.638Z,44.25
2018-07-08T12:04:56.713Z,44.90
2018-07-08T12:05:56.635Z,45.52
2018-07-08T12:06:56.692Z,44.30
2018-07-08T12:07:56.717Z,44.27
2018-07-08T12:08:56.762Z,46.20
2018-07-08T12:09:56.742Z,47.10
2018-07-08T12:10:56.639Z,44.17
2018-07-08T12:11:56.620Z,44.47
2018-07-08T12:12:56.737Z,44.02
2018-07-08T12:13:56.756Z,44.15
2018-07-08T12:14:56.759Z,45.15
2018-07-08T12:15:56.689Z,44.47
2018-07-08T12:16:56.735Z,44.97
2018-07-08T12:17:56.765Z,45.73
2018-07-08T12:18:56.734Z,45.45
2018-07-08T12:19:56.650Z,44.70
2018-07-08T12:20:56.696Z,45.02
2018-07-08T12:21:56.686Z,44.72
2018-07-08T12:22:56.743Z,44.80
2018-07-08T12:23:56.762Z,44.47
2018-07-08T12:24:56.694Z,44.64
2018-07-08T12:25:56.758Z,44.22
2018-07-08T12:26:56.761Z,43.40
2018-07-08T12:27:56.631Z,43.27
2018-07-08T12:28:56.669Z,44.90
2018-07-08T12:29:56.699Z,43.22
2018-07-08T12:30:56.688Z,44.05
2018-07-08T12:31:56.706Z,44.37
2018-07-08T12:32:56.732Z,44.43
2018-07-08T12:33:56.631Z,44.05
2018-07-08T12:34:56.767Z,44.25
2018-07-08T12:35:56.705Z,44.17
2018-07-08T12:36:56.736Z,45.00
2018-07-08T12:37:56.710Z,45.27
2018-07-08T12:38:56.726Z,45.18
2018-07-08T12:39:56.764Z,44.12
2018-07-08T12:40:56.701Z,43.47
2018-07-08T12:41:56.747Z,43.57
2018-07-08T12:42:56.737Z,44.17
2018-07-08T12:43:56.738Z,43.90
2018-07-08T12:44:56.770Z,44.32
2018-07-08T12:45:56.737Z,44.72
2018-07-08T12:46:56.672Z,44.39
2018-07-08T12:47:56.676Z,45.18
2018-07-08T12:48:56.739Z,42.70
2018-07-08T12:49:56.679Z,44.27
2018-07-08T12:50:56.677Z,44.68
2018-07-08T12:51:56.745Z,44.75
2018-07-08T12:52:56.681Z,43.92
2018-07-08T12:53:56.761Z,43.27